Terminal Aerodrome Forecast
Issued by NWS

Home | Current Version | Previous Version | Text Only | Print | Product List | Glossary On
Versions: 1 2 3 4 5 6 7 8 9 10 11 12 13 14
000
FTUS45 KTFX 241125
TAFLWT
TAF
KLWT 241125Z 2412/2512 30011KT P6SM SCT015 OVC035
      TEMPO 2412/2416 33012G19KT -SHRA BKN015
     FM241600 33011G18KT P6SM SCT030 OVC050
     FM250200 VRB04KT P6SM BKN070=

USA.gov is the U.S. government's official web portal to all federal, state and local government web resources and services.